Latest Weather Observations for Melbourne Airport

IDV60901

Issued at 11:21 pm EST Friday 1 July 2016 (issued every 10 minutes, with the page automatically refreshed every 10 minutes)

About weather observations | Map of Melbourne area stations | Latest observations for Melbourne area | Other Formats
Station Details ID: 086282 Name: MELBOURNE AIRPORT Lat: -37.67 Lon: 144.83 Height: 113.4 m
Data from the previous 72 hours. | See also: Recent months at Melbourne Airport
Date/Time
EST
Temp
°C
App
Temp
°C
Dew
Point
°C
Rel
Hum
%
Delta-T
°C
Wind Press
QNH
hPa
Press
MSL
hPa
Rain since
9am
mm
Dir  Spd
km/h
Gust
km/h
Spd
kts
Gust
kts
01/11:00pm 9.9 5.3 6.5 79 1.6 N 20 28 11 15 1023.3 1023.5 0.0
01/10:30pm 10.0 5.4 6.4 78 1.7 N 20 26 11 14 1023.1 1023.3 0.0
01/10:00pm 10.1 5.5 6.5 78 1.7 N 20 28 11 15 1023.2 1023.4 0.0
01/09:30pm 9.9 4.1 6.2 78 1.7 N 26 32 14 17 1023.1 1023.3 0.0
01/09:00pm 9.4 5.0 7.3 87 1.0 N 20 26 11 14 1023.1 1023.3 0.0
01/08:30pm 10.7 6.9 7.6 81 1.5 NW 17 26 9 14 1023.4 1023.6 0.0
01/08:00pm 11.3 7.9 5.9 69 2.5 NW 13 17 7 9 1023.3 1023.5 0.0
01/07:30pm 11.4 8.7 5.8 68 2.6 NW 9 13 5 7 1023.1 1023.3 0.0
01/07:00pm 11.3 8.3 5.9 69 2.5 NW 11 15 6 8 1022.9 1023.1 0.0
01/06:30pm 11.0 7.6 6.1 72 2.3 WNW 13 19 7 10 1022.5 1022.7 0.0
01/06:00pm 11.4 8.7 5.6 67 2.7 NNW 9 13 5 7 1022.2 1022.4 0.0
01/05:30pm 11.6 8.6 5.8 67 2.7 WNW 11 17 6 9 1022.0 1022.2 0.0
01/05:00pm 11.2 8.2 6.1 71 2.4 W 11 15 6 8 1021.7 1021.9 0.0
01/04:30pm 11.6 7.8 5.8 67 2.7 W 15 20 8 11 1021.5 1021.7 0.0
01/04:00pm 11.8 8.0 5.8 66 2.8 W 15 19 8 10 1021.3 1021.5 0.0
01/03:30pm 12.0 7.4 5.6 65 3.0 W 19 28 10 15 1021.0 1021.2 0.0
01/03:00pm 12.2 7.2 4.8 60 3.4 SW 20 28 11 15 1021.0 1021.2 0.0
01/02:30pm 12.5 6.8 4.9 60 3.5 WSW 24 33 13 18 1020.8 1021.0 0.0
01/02:00pm 12.1 7.0 4.1 58 3.6 WSW 20 30 11 16 1020.7 1020.9 0.0
01/01:30pm 12.3 6.4 3.9 56 3.8 WSW 24 33 13 18 1020.6 1020.8 0.0
01/01:00pm 12.5 5.2 2.7 51 4.3 SW 30 39 16 21 1020.6 1020.8 0.0
01/12:30pm 12.5 4.8 2.4 50 4.4 SW 32 44 17 24 1020.6 1020.8 0.0
01/12:05pm 11.8 4.5 2.3 52 4.1 SW 30 48 16 26 1020.7 1020.9 0.0
01/12:00pm 11.6 4.0 2.6 54 3.9 SW 32 43 17 23 1020.8 1021.0 0.0
01/11:30am 12.0 4.6 4.0 58 3.6 WSW 32 43 17 23 1020.6 1020.8 0.0
01/11:00am 11.6 5.6 5.1 64 3.0 WSW 26 35 14 19 1020.6 1020.8 0.0
01/10:30am 10.9 5.4 5.7 70 2.4 WSW 24 32 13 17 1020.5 1020.7 0.0
01/10:00am 10.3 4.6 6.5 77 1.8 WSW 26 32 14 17 1020.2 1020.4 0.0
01/09:30am 9.7 4.9 7.4 85 1.1 WSW 22 30 12 16 1019.9 1020.0 0.0
01/09:00am 9.6 4.8 7.3 85 1.1 WSW 22 28 12 15 1019.3 1019.4 3.4
01/08:30am 8.9 3.7 7.4 90 0.7 WSW 24 30 13 16 1018.7 1018.8 3.4
01/08:00am 9.1 2.8 7.4 89 0.8 WSW 30 39 16 21 1018.1 1018.2 3.4
01/07:30am 8.9 3.6 7.0 88 0.9 WSW 24 33 13 18 1017.5 1017.7 3.4
01/07:00am 8.1 2.7 6.4 89 0.8 W 24 30 13 16 1016.9 1017.1 3.4
01/06:30am 8.5 3.5 6.3 86 1.0 W 22 30 12 16 1016.2 1016.4 3.4
01/06:00am 8.7 3.0 6.5 86 1.0 WSW 26 32 14 17 1015.5 1015.7 3.4
01/05:30am 8.8 3.1 6.9 88 0.9 WSW 26 33 14 18 1015.2 1015.4 3.4
01/05:00am 8.6 4.1 6.9 89 0.8 WSW 20 26 11 14 1014.7 1014.9 3.4
01/04:30am 8.6 3.0 7.1 90 0.7 W 26 30 14 16 1014.2 1014.4 3.4
01/04:00am 8.4 3.5 7.1 91 0.6 WSW 22 30 12 16 1013.9 1014.1 3.4
01/03:41am 8.2 3.9 6.9 91 0.6 WSW 19 30 10 16 1013.6 1013.7 3.4
01/03:30am 8.2 4.2 6.7 90 0.7 WSW 17 24 9 13 1013.4 1013.5 3.0
01/03:00am 8.2 3.7 6.2 87 0.9 WSW 19 26 10 14 1013.0 1013.1 3.0
01/02:30am 7.8 3.7 6.0 88 0.8 SW 17 24 9 13 1012.5 1012.6 3.0
01/02:00am 7.9 3.2 5.9 87 0.9 WSW 20 30 11 16 1011.9 1012.0 3.0
01/01:30am 7.6 3.0 5.6 87 0.9 SW 19 26 10 14 1011.1 1011.2 3.0
01/01:00am 7.0 3.7 4.7 85 1.0 NW 11 15 6 8 1010.4 1010.5 3.0
01/12:30am 6.7 2.6 4.6 86 0.9 N 15 19 8 10 1009.7 1009.8 3.0
01/12:00am 7.1 2.6 4.1 81 1.3 NNW 17 24 9 13 1009.7 1009.8 3.0
 
Date/Time
EST
Temp
°C
App
Temp
°C
Dew
Point
°C
Rel
Hum
%
Delta-T
°C
Wind Press
QNH
hPa
Press
MSL
hPa
Rain since
9am
mm
Dir  Spd
km/h
Gust
km/h
Spd
kts
Gust
kts
30/11:30pm 7.5 2.4 3.3 75 1.8 NNW 19 28 10 15 1009.5 1009.6 3.0
30/11:00pm 7.6 3.0 3.9 77 1.6 NNW 17 32 9 17 1009.1 1009.3 3.0
30/10:30pm 7.2 1.8 4.7 84 1.1 N 22 28 12 15 1009.0 1009.2 3.0
30/10:00pm 7.1 0.2 4.6 84 1.1 N 30 35 16 19 1008.4 1008.6 2.8
30/09:30pm 7.4 0.7 3.7 77 1.6 N 28 33 15 18 1008.5 1008.7 2.8
30/09:00pm 6.5 0.1 3.2 79 1.4 N 26 26 14 14 1008.4 1008.6 2.8
30/08:30pm 6.9 1.3 3.4 78 1.5 N 22 28 12 15 1008.5 1008.7 2.8
30/08:00pm 7.5 1.8 3.0 73 1.9 NNW 22 28 12 15 1008.5 1008.7 2.8
30/07:30pm 7.2 1.6 3.5 77 1.6 N 22 28 12 15 1008.6 1008.8 2.8
30/07:00pm 8.0 4.1 3.4 73 2.0 N 13 19 7 10 1008.7 1008.9 2.8
30/06:30pm 8.1 3.5 3.5 73 2.0 NNW 17 24 9 13 1007.6 1007.8 2.8
30/06:00pm 7.8 3.7 4.1 77 1.6 NNW 15 19 8 10 1007.8 1008.0 2.8
30/05:30pm 7.3 3.2 4.6 83 1.2 N 15 20 8 11 1007.3 1007.5 2.8
30/05:00pm 7.5 4.2 4.3 80 1.4 NW 11 19 6 10 1007.3 1007.5 2.8
30/04:58pm 7.1 4.2 4.8 85 1.0 NW 9 15 5 8 1007.3 1007.5 2.8
30/04:44pm 6.7 0.2 4.9 88 0.8 WNW 28 48 15 26 1007.4 1007.6 2.8
30/04:33pm 7.3 0.0 5.3 87 0.9 W 33 54 18 29 1008.2 1008.4 1.8
30/04:30pm 8.3 3.5 7.2 93 0.5 NNW 22 33 12 18 1007.6 1007.8 1.4
30/04:22pm 8.4 3.1 6.9 90 0.7 NNW 24 33 13 18 1007.0 1007.2 0.6
30/04:12pm 8.4 2.0 6.9 90 0.7 N 30 48 16 26 1006.5 1006.6 0.4
30/04:00pm 8.5 1.5 6.8 89 0.8 N 33 44 18 24 1006.2 1006.3 0.2
30/03:30pm 9.1 0.7 5.8 80 1.5 N 39 50 21 27 1006.0 1006.1 0.2
30/03:00pm 9.1 -0.2 6.1 81 1.4 N 44 61 24 33 1006.5 1006.6 0.2
30/02:41pm 9.1 -0.5 6.3 83 1.3 N 46 65 25 35 1006.6 1006.7 0.2
30/02:30pm 8.9 -1.4 6.3 84 1.2 N 50 65 27 35 1006.6 1006.7 0.2
30/02:00pm 9.0 -1.4 6.0 81 1.4 N 50 70 27 38 1006.6 1006.7 0.2
30/01:44pm 8.9 -0.7 6.1 82 1.3 N 46 65 25 35 1006.9 1007.1 0.2
30/01:30pm 9.0 -1.3 6.4 84 1.2 N 50 61 27 33 1007.2 1007.4 0.2
30/01:14pm 9.6 0.8 7.3 85 1.1 N 43 57 23 31 1007.3 1007.5 0.2
30/01:00pm 8.6 -0.9 6.5 87 1.0 N 46 61 25 33 1007.6 1007.8 0.0
30/12:34pm 9.7 -0.1 5.1 73 2.1 N 46 67 25 36 1008.0 1008.2 0.0
30/12:30pm 9.7 -0.9 5.3 74 2.0 N 50 63 27 34 1008.2 1008.4 0.0
30/12:00pm 9.6 -0.6 5.2 74 2.0 N 48 70 26 38 1008.7 1008.9 0.0
30/11:51am 9.2 -1.8 5.2 76 1.8 N 52 70 28 38 1009.0 1009.2 0.0
30/11:30am 9.0 -0.8 5.5 79 1.6 N 46 59 25 32 1009.8 1009.9 0.0
30/11:00am 10.2 0.8 4.7 68 2.5 N 43 59 23 32 1010.7 1010.8 0.0
30/10:31am 9.7 -2.2 4.1 68 2.5 N 56 74 30 40 1010.5 1010.6 0.0
30/10:30am 9.7 -2.4 4.1 68 2.5 N 57 74 31 40 1010.4 1010.5 0.0
30/10:00am 9.3 -1.0 4.6 72 2.1 N 48 69 26 37 1010.6 1010.7 0.0
30/09:35am 9.0 0.3 4.3 72 2.1 N 39 57 21 31 1011.0 1011.1 0.0
30/09:30am 9.0 0.0 4.3 72 2.1 N 41 56 22 30 1011.1 1011.2 0.0
30/09:20am 9.1 0.7 3.9 70 2.3 N 37 56 20 30 1011.2 1011.3 0.0
30/09:00am 8.8 -0.6 4.3 73 2.0 N 43 57 23 31 1010.7 1010.8 0.0
30/08:30am 8.7 -1.7 4.2 73 2.0 N 48 61 26 33 1010.7 1010.8 0.0
30/08:00am 8.7 -0.9 4.2 73 2.0 N 44 61 24 33 1011.5 1011.6 0.0
30/07:51am 8.8 0.9 4.3 73 2.0 N 35 56 19 30 1011.8 1011.9 0.0
30/07:30am 8.7 0.8 4.4 74 1.9 N 35 52 19 28 1012.1 1012.2 0.0
30/07:00am 8.5 2.0 4.7 77 1.7 N 28 39 15 21 1012.5 1012.6 0.0
30/06:30am 8.5 1.2 4.7 77 1.7 N 32 44 17 24 1013.0 1013.1 0.0
30/06:00am 8.6 1.3 4.5 75 1.8 N 32 50 17 27 1013.3 1013.4 0.0
30/05:51am 8.6 1.3 4.5 75 1.8 N 32 50 17 27 1013.4 1013.5 0.0
30/05:30am 8.7 0.8 4.4 74 1.9 N 35 52 19 28 1013.6 1013.7 0.0
30/05:00am 8.8 0.2 4.5 74 1.9 N 39 54 21 29 1013.5 1013.6 0.0
30/04:30am 8.9 0.3 4.4 73 2.0 N 39 56 21 30 1013.9 1014.1 0.0
30/04:00am 9.1 0.8 4.1 71 2.2 N 37 50 20 27 1014.3 1014.5 0.0
30/03:30am 9.0 1.6 4.0 71 2.2 N 32 41 17 22 1014.9 1015.1 0.0
30/03:00am 9.1 1.1 3.6 68 2.4 N 35 57 19 31 1015.7 1015.9 0.0
30/02:51am 9.2 1.6 3.7 68 2.4 N 33 57 18 31 1015.9 1016.1 0.0
30/02:30am 9.4 2.7 3.7 67 2.5 N 28 39 15 21 1016.5 1016.7 0.0
30/02:00am 9.5 2.5 4.3 70 2.3 N 30 39 16 21 1016.9 1017.1 0.0
30/01:30am 9.4 3.0 5.2 75 1.9 N 28 41 15 22 1017.2 1017.4 0.0
30/01:00am 9.6 3.2 5.2 74 2.0 N 28 39 15 21 1017.7 1017.9 0.0
30/12:30am 10.1 3.2 4.8 69 2.4 N 30 39 16 21 1018.3 1018.4 0.0
30/12:03am 10.8 2.9 4.1 63 3.0 N 35 54 19 29 1018.4 1018.5 0.0
30/12:00am 10.7 2.4 4.2 64 2.9 N 37 54 20 29 1018.4 1018.5 0.0
 
Date/Time
EST
Temp
°C
App
Temp
°C
Dew
Point
°C
Rel
Hum
%
Delta-T
°C
Wind Press
QNH
hPa
Press
MSL
hPa
Rain since
9am
mm
Dir  Spd
km/h
Gust
km/h
Spd
kts
Gust
kts
29/11:40pm 10.6 3.7 4.4 65 2.8 N 30 52 16 28 1018.6 1018.7 0.0
29/11:30pm 10.6 3.3 4.6 66 2.7 N 32 41 17 22 1018.7 1018.8 0.0
29/11:00pm 10.9 3.4 4.5 64 2.9 N 33 56 18 30 1018.7 1018.8 0.0
29/10:31pm 10.5 3.6 4.8 68 2.6 N 30 48 16 26 1018.4 1018.5 0.0
29/10:30pm 10.7 3.8 4.5 65 2.8 N 30 44 16 24 1018.3 1018.4 0.0
29/10:02pm 10.6 3.1 4.6 66 2.7 N 33 52 18 28 1018.4 1018.5 0.0
29/10:00pm 10.6 2.7 4.4 65 2.8 N 35 52 19 28 1018.3 1018.4 0.0
29/09:30pm 10.5 2.4 5.3 70 2.4 N 37 56 20 30 1018.6 1018.7 0.0
29/09:00pm 10.4 2.7 5.4 71 2.3 N 35 48 19 26 1019.0 1019.1 0.0
29/08:30pm 10.2 3.1 5.4 72 2.2 N 32 41 17 22 1019.5 1019.6 0.0
29/08:00pm 10.0 3.7 5.6 74 2.0 N 28 37 15 20 1019.9 1020.0 0.0
29/07:30pm 10.2 5.4 5.6 73 2.1 N 20 30 11 16 1020.3 1020.4 0.0
29/07:00pm 10.4 5.6 5.6 72 2.2 NNE 20 28 11 15 1020.7 1020.8 0.0
29/06:30pm 10.6 4.7 5.6 71 2.3 N 26 35 14 19 1020.8 1021.0 0.0
29/06:00pm 10.5 5.2 5.0 69 2.5 N 22 30 12 16 1021.1 1021.3 0.0
29/05:30pm 10.9 5.4 3.9 62 3.1 N 22 28 12 15 1021.4 1021.6 0.0
29/05:00pm 11.6 4.4 3.2 56 3.7 N 30 39 16 21 1021.5 1021.7 0.0
29/04:30pm 12.2 4.7 3.2 54 4.0 N 32 41 17 22 1021.9 1022.1 0.0
29/04:00pm 12.9 5.8 3.3 52 4.3 N 30 39 16 21 1022.5 1022.7 0.0
29/03:30pm 13.4 6.3 3.7 52 4.4 N 30 39 16 21 1022.6 1022.8 0.0
29/03:00pm 13.5 5.4 3.2 49 4.6 N 35 50 19 27 1022.6 1022.8 0.0
29/02:30pm 13.8 5.0 3.6 50 4.6 N 39 50 21 27 1022.9 1023.1 0.0
29/02:00pm 14.3 8.0 5.7 56 4.1 N 28 37 15 20 1023.2 1023.4 0.0
29/01:30pm 14.4 8.0 5.3 54 4.3 N 28 41 15 22 1023.8 1024.0 0.0
29/01:16pm 14.7 8.3 5.4 53 4.4 N 28 46 15 25 1024.0 1024.2 0.0
29/01:00pm 14.2 9.1 7.5 64 3.3 NNE 24 33 13 18 1024.3 1024.5 0.0
29/12:30pm 14.3 9.0 6.9 61 3.6 N 24 30 13 16 1024.8 1025.0 0.0
29/12:00pm 13.8 9.0 7.5 66 3.1 N 22 28 12 15 1025.4 1025.6 0.0
29/11:30am 13.4 9.1 7.9 69 2.7 NNE 20 32 11 17 1026.1 1026.3 0.0
29/11:00am 12.7 8.3 7.3 69 2.6 N 20 30 11 16 1026.6 1026.8 0.0
29/10:30am 12.2 7.9 7.7 74 2.2 N 20 28 11 15 1026.8 1027.0 0.0
29/10:00am 11.5 6.8 7.6 77 1.9 N 22 28 12 15 1027.0 1027.1 0.0
29/09:30am 10.5 6.2 8.0 84 1.2 N 20 26 11 14 1026.8 1027.0 0.0
29/09:00am 9.9 4.4 7.6 85 1.1 N 26 32 14 17 1026.8 1027.0 0.0
29/08:30am 9.1 3.9 7.2 88 0.9 N 24 30 13 16 1026.7 1026.9 0.0
29/08:00am 8.6 3.0 7.1 90 0.7 N 26 28 14 15 1026.5 1026.7 0.0
29/07:30am 8.2 3.3 6.9 91 0.6 N 22 28 12 15 1026.4 1026.6 0.0
29/07:00am 7.7 3.2 7.1 96 0.3 N 20 24 11 13 1026.2 1026.4 0.0
29/06:30am 7.4 2.8 6.5 94 0.4 N 20 26 11 14 1026.3 1026.5 0.0
29/06:00am 8.0 3.4 6.7 91 0.6 N 20 24 11 13 1026.1 1026.3 0.0
29/05:30am 8.5 2.8 6.8 89 0.8 N 26 28 14 15 1025.9 1026.1 0.0
29/05:00am 8.3 3.4 7.0 91 0.6 N 22 28 12 15 1025.8 1026.0 0.0
29/04:30am 8.2 3.7 6.9 91 0.6 N 20 26 11 14 1025.8 1026.0 0.0
29/04:00am 8.8 4.5 7.1 89 0.8 NNW 19 26 10 14 1025.8 1026.0 0.0
29/03:30am 8.9 4.5 7.2 89 0.8 N 20 28 11 15 1025.8 1026.0 0.0
29/03:00am 8.9 4.7 7.4 90 0.7 NNW 19 24 10 13 1025.8 1026.0 0.0
29/02:30am 9.3 4.6 7.6 89 0.8 N 22 26 12 14 1025.6 1025.8 0.0
29/02:00am 9.8 5.1 7.7 87 1.0 N 22 28 12 15 1025.8 1026.0 0.0
29/01:30am 9.4 5.1 7.7 89 0.8 N 20 26 11 14 1025.7 1025.9 0.0
29/01:00am 9.9 5.6 7.8 87 1.0 N 20 28 11 15 1025.8 1026.0 0.0
29/12:30am 10.0 5.7 7.9 87 1.0 N 20 26 11 14 1025.8 1026.0 0.0
29/12:00am 9.4 3.9 7.7 89 0.8 N 26 32 14 17 1025.8 1026.0 0.0
 
Date/Time
EST
Temp
°C
App
Temp
°C
Dew
Point
°C
Rel
Hum
%
Delta-T
°C
Wind Press
QNH
hPa
Press
MSL
hPa
Rain since
9am
mm
Dir  Spd
km/h
Gust
km/h
Spd
kts
Gust
kts
28/11:30pm 9.9 4.4 7.6 85 1.1 N 26 32 14 17 1025.9 1026.1 0.0

Latest Capital City Observations: Canberra | Sydney | Melbourne | Brisbane | Adelaide | Perth | Hobart | Darwin

Other Formats:

Comma delimited format used in spreadsheet applications
http://www.bom.gov.au/fwo/IDV60901/IDV60901.94866.axf

JavaScript Object Notation format (JSON) in row-major order
http://www.bom.gov.au/fwo/IDV60901/IDV60901.94866.json